VKG560 ENGM-LEPA
Flight info
| Callsign | VKG560 |
|---|---|
| Flight time | N/A |
| Altitude | 40000 |
| Route | VIPPA DCT BINRO DCT LUTIR DCT IBESA/N0455F390 DCT LIMGO DCT SUTAL DCT GTQ DCT POGOL DCT LASAT DCT MOROK DCT GILIR DCT GEVEA DCT INCUS DCT BALSI DCT RETNO DCT TUPOX DCT MTG DCT DIVKO DCT VATIR DCT PIVUS DCT BODEQ DCT VERSO L129 LUNIK |
| Aircraft | A339/H-SADE1E2E3GHIJ3J5M1P2RWXY/LB2D1 |
Departure
| Time | 2026-05-01 13:36 |
|---|---|
| Airport | Oslo-Gardermoen International Airport (ENGM) |
Arrival
| Time | N/A |
|---|---|
| Airport | Palma de Mallorca Airport (LEPA) |
| Time | Latitude | Longitude | Altitude | Speed | Heading |
|---|---|---|---|---|---|
| 2026-05-01 13:08 | 60.19770 | 11.10330 | 697 ft | 0 kts | 286° |
| 2026-05-01 13:24 | 60.19767 | 11.10356 | 697 ft | 2 kts | 283° |
| 2026-05-01 13:24 | 60.19763 | 11.10386 | 697 ft | 2 kts | 286° |
| 2026-05-01 13:24 | 60.19759 | 11.10415 | 697 ft | 2 kts | 287° |
| 2026-05-01 13:25 | 60.19757 | 11.10474 | 697 ft | 2 kts | 244° |
| 2026-05-01 13:25 | 60.19765 | 11.10499 | 697 ft | 2 kts | 219° |
| 2026-05-01 13:25 | 60.19778 | 11.10514 | 697 ft | 2 kts | 194° |
| 2026-05-01 13:25 | 60.19792 | 11.10520 | 697 ft | 0 kts | 195° |
| 2026-05-01 13:26 | 60.19794 | 11.10522 | 697 ft | 0 kts | 196° |
| 2026-05-01 13:28 | 60.19755 | 11.10534 | 697 ft | 8 kts | 140° |
| 2026-05-01 13:28 | 60.19749 | 11.10634 | 697 ft | 7 kts | 52° |
| 2026-05-01 13:29 | 60.19857 | 11.10744 | 697 ft | 10 kts | 72° |
| 2026-05-01 13:29 | 60.19821 | 11.11063 | 697 ft | 12 kts | 107° |
| 2026-05-01 13:30 | 60.19835 | 11.11520 | 697 ft | 9 kts | 17° |
| 2026-05-01 13:31 | 60.20004 | 11.11617 | 697 ft | 13 kts | 16° |
| 2026-05-01 13:31 | 60.20166 | 11.11840 | 697 ft | 8 kts | 104° |
| 2026-05-01 13:32 | 60.20131 | 11.12106 | 697 ft | 10 kts | 105° |
| 2026-05-01 13:33 | 60.20077 | 11.12224 | 697 ft | 0 kts | 194° |
| 2026-05-01 13:35 | 60.20042 | 11.12206 | 697 ft | 28 kts | 195° |
| 2026-05-01 13:35 | 60.18705 | 11.11434 | 712 ft | 161 kts | 197° |
| 2026-05-01 13:36 | 60.17555 | 11.10769 | 1362 ft | 168 kts | 198° |
| 2026-05-01 13:36 | 60.16443 | 11.10123 | 2264 ft | 165 kts | 199° |
| 2026-05-01 13:36 | 60.14142 | 11.08825 | 3442 ft | 185 kts | 198° |
| 2026-05-01 13:37 | 60.12804 | 11.08240 | 3796 ft | 205 kts | 192° |
| 2026-05-01 13:37 | 60.11311 | 11.07857 | 4178 ft | 224 kts | 190° |
| 2026-05-01 13:37 | 60.09718 | 11.07496 | 4569 ft | 242 kts | 190° |
| 2026-05-01 13:37 | 60.07974 | 11.07109 | 5015 ft | 257 kts | 190° |